sensor_id;sensor_type;location;lat;lon;timestamp;P1;durP1;ratioP1;P2;durP2;ratioP2
14153;SDS011;7157;53.144;7.570;2023-05-19T00:04:29;11.18;;;3.53;;
14153;SDS011;7157;53.144;7.570;2023-05-19T00:14:34;14.57;;;3.30;;
14153;SDS011;7157;53.144;7.570;2023-05-19T00:24:38;8.93;;;3.70;;
14153;SDS011;7157;53.144;7.570;2023-05-19T00:34:41;6.95;;;3.13;;
14153;SDS011;7157;53.144;7.570;2023-05-19T00:44:45;11.32;;;3.33;;
14153;SDS011;7157;53.144;7.570;2023-05-19T00:54:48;12.45;;;3.10;;
14153;SDS011;7157;53.144;7.570;2023-05-19T01:04:54;9.55;;;2.65;;
14153;SDS011;7157;53.144;7.570;2023-05-19T01:14:58;13.18;;;3.00;;
14153;SDS011;7157;53.144;7.570;2023-05-19T01:25:14;7.13;;;2.60;;
14153;SDS011;7157;53.144;7.570;2023-05-19T01:35:35;14.13;;;2.78;;
14153;SDS011;7157;53.144;7.570;2023-05-19T01:45:39;5.55;;;2.30;;
14153;SDS011;7157;53.144;7.570;2023-05-19T01:55:45;9.38;;;2.85;;
14153;SDS011;7157;53.144;7.570;2023-05-19T02:05:51;5.05;;;2.13;;
14153;SDS011;7157;53.144;7.570;2023-05-19T02:16:03;6.50;;;2.30;;
14153;SDS011;7157;53.144;7.570;2023-05-19T02:26:07;5.25;;;2.25;;
14153;SDS011;7157;53.144;7.570;2023-05-19T02:36:11;6.65;;;2.15;;
14153;SDS011;7157;53.144;7.570;2023-05-19T02:46:14;5.32;;;2.20;;
14153;SDS011;7157;53.144;7.570;2023-05-19T02:56:18;5.20;;;2.20;;
14153;SDS011;7157;53.144;7.570;2023-05-19T03:06:21;6.75;;;2.38;;
14153;SDS011;7157;53.144;7.570;2023-05-19T03:16:25;4.80;;;1.83;;
14153;SDS011;7157;53.144;7.570;2023-05-19T03:26:28;4.20;;;2.20;;
14153;SDS011;7157;53.144;7.570;2023-05-19T03:36:33;10.23;;;2.50;;
14153;SDS011;7157;53.144;7.570;2023-05-19T03:46:39;11.10;;;3.60;;
14153;SDS011;7157;53.144;7.570;2023-05-19T03:56:44;5.68;;;2.90;;
14153;SDS011;7157;53.144;7.570;2023-05-19T04:06:47;5.55;;;2.72;;
14153;SDS011;7157;53.144;7.570;2023-05-19T04:16:51;7.88;;;2.70;;
14153;SDS011;7157;53.144;7.570;2023-05-19T04:26:54;8.20;;;2.72;;
14153;SDS011;7157;53.144;7.570;2023-05-19T04:36:58;11.10;;;3.20;;
14153;SDS011;7157;53.144;7.570;2023-05-19T04:47:01;9.52;;;4.45;;
14153;SDS011;7157;53.144;7.570;2023-05-19T04:57:07;9.85;;;4.43;;
14153;SDS011;7157;53.144;7.570;2023-05-19T05:07:10;19.15;;;5.70;;
14153;SDS011;7157;53.144;7.570;2023-05-19T05:17:15;11.35;;;5.32;;
14153;SDS011;7157;53.144;7.570;2023-05-19T05:27:18;12.80;;;5.35;;
14153;SDS011;7157;53.144;7.570;2023-05-19T05:37:22;15.85;;;4.90;;
14153;SDS011;7157;53.144;7.570;2023-05-19T05:47:25;11.07;;;4.50;;
14153;SDS011;7157;53.144;7.570;2023-05-19T05:57:29;11.23;;;4.15;;
14153;SDS011;7157;53.144;7.570;2023-05-19T06:07:35;16.83;;;4.13;;
14153;SDS011;7157;53.144;7.570;2023-05-19T06:17:39;11.10;;;3.72;;
14153;SDS011;7157;53.144;7.570;2023-05-19T06:27:42;9.60;;;3.33;;
14153;SDS011;7157;53.144;7.570;2023-05-19T06:37:46;5.25;;;2.45;;
14153;SDS011;7157;53.144;7.570;2023-05-19T06:47:48;7.20;;;2.30;;
14153;SDS011;7157;53.144;7.570;2023-05-19T06:57:53;7.45;;;2.40;;
14153;SDS011;7157;53.144;7.570;2023-05-19T07:07:55;5.30;;;2.33;;
14153;SDS011;7157;53.144;7.570;2023-05-19T07:17:59;7.13;;;2.05;;
14153;SDS011;7157;53.144;7.570;2023-05-19T07:28:02;5.65;;;2.17;;
14153;SDS011;7157;53.144;7.570;2023-05-19T07:38:06;6.40;;;2.50;;
14153;SDS011;7157;53.144;7.570;2023-05-19T07:48:09;7.32;;;2.30;;
14153;SDS011;7157;53.144;7.570;2023-05-19T07:58:13;7.25;;;2.40;;
14153;SDS011;7157;53.144;7.570;2023-05-19T08:08:17;9.00;;;2.10;;
14153;SDS011;7157;53.144;7.570;2023-05-19T08:18:21;10.68;;;2.97;;
14153;SDS011;7157;53.144;7.570;2023-05-19T08:28:23;11.88;;;2.20;;
14153;SDS011;7157;53.144;7.570;2023-05-19T08:38:28;12.18;;;2.17;;
14153;SDS011;7157;53.144;7.570;2023-05-19T08:48:31;12.27;;;3.33;;
14153;SDS011;7157;53.144;7.570;2023-05-19T08:58:38;7.60;;;1.80;;
14153;SDS011;7157;53.144;7.570;2023-05-19T09:08:44;7.97;;;2.45;;
14153;SDS011;7157;53.144;7.570;2023-05-19T09:18:55;13.23;;;2.65;;
14153;SDS011;7157;53.144;7.570;2023-05-19T09:28:58;10.20;;;2.38;;
14153;SDS011;7157;53.144;7.570;2023-05-19T09:39:03;7.82;;;1.70;;
14153;SDS011;7157;53.144;7.570;2023-05-19T09:49:17;6.30;;;1.70;;
14153;SDS011;7157;53.144;7.570;2023-05-19T09:59:24;7.07;;;1.50;;
14153;SDS011;7157;53.144;7.570;2023-05-19T10:09:31;7.20;;;1.42;;
14153;SDS011;7157;53.144;7.570;2023-05-19T10:19:38;10.15;;;1.55;;
14153;SDS011;7157;53.144;7.570;2023-05-19T10:29:49;7.85;;;1.83;;
14153;SDS011;7157;53.144;7.570;2023-05-19T10:39:55;6.90;;;1.83;;
14153;SDS011;7157;53.144;7.570;2023-05-19T10:49:59;4.95;;;2.35;;
14153;SDS011;7157;53.144;7.570;2023-05-19T11:00:04;5.40;;;1.92;;
14153;SDS011;7157;53.144;7.570;2023-05-19T11:10:30;7.50;;;1.90;;
14153;SDS011;7157;53.144;7.570;2023-05-19T11:20:35;11.10;;;2.20;;
14153;SDS011;7157;53.144;7.570;2023-05-19T11:30:41;10.40;;;1.90;;
14153;SDS011;7157;53.144;7.570;2023-05-19T11:40:47;4.53;;;1.90;;
14153;SDS011;7157;53.144;7.570;2023-05-19T11:50:53;7.45;;;2.30;;
14153;SDS011;7157;53.144;7.570;2023-05-19T12:01:02;7.80;;;2.13;;
14153;SDS011;7157;53.144;7.570;2023-05-19T12:11:05;5.28;;;1.80;;
14153;SDS011;7157;53.144;7.570;2023-05-19T12:21:09;8.70;;;2.22;;
14153;SDS011;7157;53.144;7.570;2023-05-19T12:41:16;7.53;;;2.20;;
14153;SDS011;7157;53.144;7.570;2023-05-19T12:51:19;8.68;;;2.25;;
14153;SDS011;7157;53.144;7.570;2023-05-19T13:01:24;8.63;;;2.13;;
14153;SDS011;7157;53.144;7.570;2023-05-19T13:11:26;7.22;;;2.00;;
14153;SDS011;7157;53.144;7.570;2023-05-19T13:21:31;7.75;;;1.85;;
14153;SDS011;7157;53.144;7.570;2023-05-19T13:31:34;4.25;;;1.33;;
14153;SDS011;7157;53.144;7.570;2023-05-19T13:41:38;16.20;;;2.20;;
14153;SDS011;7157;53.144;7.570;2023-05-19T13:51:41;11.73;;;2.15;;
14153;SDS011;7157;53.144;7.570;2023-05-19T14:01:46;8.07;;;1.95;;
14153;SDS011;7157;53.144;7.570;2023-05-19T14:11:49;5.00;;;1.50;;
14153;SDS011;7157;53.144;7.570;2023-05-19T14:21:53;6.32;;;2.17;;
14153;SDS011;7157;53.144;7.570;2023-05-19T14:31:56;7.43;;;1.98;;
14153;SDS011;7157;53.144;7.570;2023-05-19T14:42:00;8.55;;;2.40;;
14153;SDS011;7157;53.144;7.570;2023-05-19T14:52:03;5.47;;;2.00;;
14153;SDS011;7157;53.144;7.570;2023-05-19T15:02:07;12.13;;;2.33;;
14153;SDS011;7157;53.144;7.570;2023-05-19T15:12:11;10.13;;;2.55;;
14153;SDS011;7157;53.144;7.570;2023-05-19T15:22:15;10.60;;;2.38;;
14153;SDS011;7157;53.144;7.570;2023-05-19T15:32:18;7.88;;;2.15;;
14153;SDS011;7157;53.144;7.570;2023-05-19T15:42:22;10.25;;;3.05;;
14153;SDS011;7157;53.144;7.570;2023-05-19T15:52:26;7.50;;;2.20;;
14153;SDS011;7157;53.144;7.570;2023-05-19T16:02:30;9.10;;;2.47;;
14153;SDS011;7157;53.144;7.570;2023-05-19T16:12:33;12.10;;;2.55;;
14153;SDS011;7157;53.144;7.570;2023-05-19T16:22:38;13.82;;;3.00;;
14153;SDS011;7157;53.144;7.570;2023-05-19T16:32:41;10.55;;;2.47;;
14153;SDS011;7157;53.144;7.570;2023-05-19T16:42:45;8.80;;;2.53;;
14153;SDS011;7157;53.144;7.570;2023-05-19T16:52:48;13.43;;;2.90;;
14153;SDS011;7157;53.144;7.570;2023-05-19T17:02:52;7.63;;;1.73;;
14153;SDS011;7157;53.144;7.570;2023-05-19T17:12:54;11.15;;;2.53;;
14153;SDS011;7157;53.144;7.570;2023-05-19T17:22:59;7.45;;;1.83;;
14153;SDS011;7157;53.144;7.570;2023-05-19T17:33:01;10.98;;;2.15;;
14153;SDS011;7157;53.144;7.570;2023-05-19T17:43:05;7.75;;;2.13;;
14153;SDS011;7157;53.144;7.570;2023-05-19T17:53:08;8.00;;;2.00;;
14153;SDS011;7157;53.144;7.570;2023-05-19T18:03:13;5.38;;;2.08;;
14153;SDS011;7157;53.144;7.570;2023-05-19T18:13:16;4.45;;;2.05;;
14153;SDS011;7157;53.144;7.570;2023-05-19T18:23:20;9.15;;;2.30;;
14153;SDS011;7157;53.144;7.570;2023-05-19T18:33:22;9.93;;;1.95;;
14153;SDS011;7157;53.144;7.570;2023-05-19T18:43:29;8.30;;;1.92;;
14153;SDS011;7157;53.144;7.570;2023-05-19T18:53:32;9.52;;;2.10;;
14153;SDS011;7157;53.144;7.570;2023-05-19T19:03:38;7.88;;;2.25;;
14153;SDS011;7157;53.144;7.570;2023-05-19T19:13:42;9.40;;;2.13;;
14153;SDS011;7157;53.144;7.570;2023-05-19T19:23:46;7.68;;;2.08;;
14153;SDS011;7157;53.144;7.570;2023-05-19T19:33:49;6.78;;;1.98;;
14153;SDS011;7157;53.144;7.570;2023-05-19T19:43:53;8.45;;;2.38;;
14153;SDS011;7157;53.144;7.570;2023-05-19T19:53:55;6.30;;;2.45;;
14153;SDS011;7157;53.144;7.570;2023-05-19T20:04:00;9.52;;;2.42;;
14153;SDS011;7157;53.144;7.570;2023-05-19T20:14:02;7.05;;;2.28;;
14153;SDS011;7157;53.144;7.570;2023-05-19T20:24:07;6.57;;;2.30;;
14153;SDS011;7157;53.144;7.570;2023-05-19T20:34:09;12.10;;;2.53;;
14153;SDS011;7157;53.144;7.570;2023-05-19T20:44:14;11.13;;;3.30;;
14153;SDS011;7157;53.144;7.570;2023-05-19T20:54:17;10.52;;;3.03;;
14153;SDS011;7157;53.144;7.570;2023-05-19T21:04:21;9.55;;;3.42;;
14153;SDS011;7157;53.144;7.570;2023-05-19T21:14:24;8.55;;;3.03;;
14153;SDS011;7157;53.144;7.570;2023-05-19T21:24:28;10.07;;;3.42;;
14153;SDS011;7157;53.144;7.570;2023-05-19T21:34:31;7.55;;;2.95;;
14153;SDS011;7157;53.144;7.570;2023-05-19T21:44:35;8.85;;;3.40;;
14153;SDS011;7157;53.144;7.570;2023-05-19T21:54:38;7.63;;;3.38;;
14153;SDS011;7157;53.144;7.570;2023-05-19T22:04:42;7.05;;;3.10;;
14153;SDS011;7157;53.144;7.570;2023-05-19T22:14:45;13.35;;;3.35;;
14153;SDS011;7157;53.144;7.570;2023-05-19T22:24:49;10.27;;;3.15;;
14153;SDS011;7157;53.144;7.570;2023-05-19T22:34:52;11.88;;;2.88;;
14153;SDS011;7157;53.144;7.570;2023-05-19T22:44:56;7.82;;;2.72;;
14153;SDS011;7157;53.144;7.570;2023-05-19T22:54:58;11.50;;;3.42;;
14153;SDS011;7157;53.144;7.570;2023-05-19T23:05:03;14.65;;;3.70;;
14153;SDS011;7157;53.144;7.570;2023-05-19T23:15:06;9.77;;;3.40;;
14153;SDS011;7157;53.144;7.570;2023-05-19T23:25:11;6.63;;;3.13;;
14153;SDS011;7157;53.144;7.570;2023-05-19T23:35:14;9.20;;;3.35;;
14153;SDS011;7157;53.144;7.570;2023-05-19T23:45:21;6.88;;;2.80;;
14153;SDS011;7157;53.144;7.570;2023-05-19T23:55:24;9.75;;;2.88;;
